createdAt,value
2023-04-13T00:00:49.720Z,15.60
2023-04-13T00:03:18.176Z,15.60
2023-04-13T00:05:46.564Z,15.50
2023-04-13T00:08:22.914Z,15.50
2023-04-13T00:10:51.073Z,15.50
2023-04-13T00:13:21.029Z,15.50
2023-04-13T00:15:48.330Z,15.50
2023-04-13T00:18:15.660Z,15.40
2023-04-13T00:20:43.725Z,15.40
2023-04-13T00:23:11.206Z,15.40
2023-04-13T00:25:38.702Z,15.40
2023-04-13T00:28:09.136Z,15.40
2023-04-13T00:30:36.785Z,15.30
2023-04-13T00:33:06.847Z,15.40
2023-04-13T00:35:36.451Z,15.30
2023-04-13T00:38:06.155Z,15.30
2023-04-13T00:40:37.982Z,15.30
2023-04-13T00:43:05.760Z,15.30
2023-04-13T00:45:39.024Z,15.30
2023-04-13T00:48:12.426Z,15.30
2023-04-13T00:50:42.127Z,15.30
2023-04-13T00:53:13.471Z,15.30
2023-04-13T00:55:42.994Z,15.30
2023-04-13T00:58:13.394Z,15.30
2023-04-13T01:00:42.968Z,15.30
2023-04-13T01:03:11.578Z,15.30
2023-04-13T01:06:17.949Z,15.20
2023-04-13T01:08:53.285Z,15.20
2023-04-13T01:11:28.392Z,15.20
2023-04-13T01:14:07.115Z,15.20
2023-04-13T01:16:49.202Z,15.20
2023-04-13T01:19:35.024Z,15.20
2023-04-13T01:22:06.065Z,15.20
2023-04-13T01:24:48.293Z,15.20
2023-04-13T01:27:20.543Z,15.20
2023-04-13T01:29:49.757Z,15.10
2023-04-13T01:32:20.352Z,15.10
2023-04-13T01:34:50.178Z,15.10
2023-04-13T01:37:25.880Z,15.10
2023-04-13T01:39:53.480Z,15.10
2023-04-13T01:42:23.489Z,15.10
2023-04-13T01:44:53.189Z,15.10
2023-04-13T01:47:25.600Z,15.00
2023-04-13T01:49:59.929Z,15.00
2023-04-13T01:52:31.197Z,15.00
2023-04-13T01:55:02.927Z,15.00
2023-04-13T01:57:31.225Z,15.00
2023-04-13T02:00:11.807Z,15.00
2023-04-13T02:02:39.221Z,15.00
2023-04-13T02:05:10.329Z,15.00
2023-04-13T02:07:41.739Z,14.90
2023-04-13T02:10:09.604Z,14.90
2023-04-13T02:12:37.621Z,14.90
2023-04-13T02:15:05.255Z,14.90
2023-04-13T02:17:34.906Z,14.80
2023-04-13T02:20:02.695Z,14.80
2023-04-13T02:22:32.615Z,14.70
2023-04-13T02:25:00.580Z,14.70
2023-04-13T02:27:29.009Z,14.70
2023-04-13T02:30:01.376Z,14.70
2023-04-13T02:32:31.659Z,14.60
2023-04-13T02:35:02.281Z,14.60
2023-04-13T02:37:33.025Z,14.60
2023-04-13T02:40:00.263Z,14.50
2023-04-13T02:42:28.014Z,14.50
2023-04-13T02:44:55.269Z,14.50
2023-04-13T02:47:22.721Z,14.40
2023-04-13T02:49:50.083Z,14.40
2023-04-13T02:52:21.628Z,14.40
2023-04-13T02:54:54.596Z,14.30
2023-04-13T02:57:22.507Z,14.30
2023-04-13T02:59:50.617Z,14.30
2023-04-13T03:02:20.463Z,14.20
2023-04-13T03:04:52.502Z,14.20
2023-04-13T03:07:19.766Z,14.20
2023-04-13T03:09:49.314Z,14.10
2023-04-13T03:12:17.106Z,14.20
2023-04-13T03:14:44.347Z,14.10
2023-04-13T03:17:12.600Z,14.10
2023-04-13T03:19:42.705Z,14.00
2023-04-13T03:22:10.047Z,14.10
2023-04-13T03:24:39.766Z,14.10
2023-04-13T03:27:09.591Z,14.00
2023-04-13T03:29:37.687Z,14.00
2023-04-13T03:32:06.955Z,14.00
2023-04-13T03:34:34.264Z,14.00
2023-04-13T03:37:01.508Z,14.00
2023-04-13T03:39:33.815Z,14.00
2023-04-13T03:42:03.683Z,14.00
2023-04-13T03:44:33.616Z,14.00
2023-04-13T03:47:01.540Z,14.10
2023-04-13T03:49:30.478Z,14.10
2023-04-13T03:52:00.415Z,14.10
2023-04-13T03:54:27.670Z,14.00
2023-04-13T03:56:58.752Z,14.00
2023-04-13T03:59:26.148Z,14.00
2023-04-13T04:01:56.752Z,14.10
2023-04-13T04:04:27.312Z,14.00
2023-04-13T04:06:54.656Z,14.00
2023-04-13T04:09:27.479Z,14.00
2023-04-13T04:11:57.623Z,14.00
2023-04-13T04:14:27.321Z,13.90
2023-04-13T04:16:57.125Z,13.90
2023-04-13T04:19:26.628Z,13.90
2023-04-13T04:21:57.767Z,13.90
2023-04-13T04:24:29.795Z,13.90
2023-04-13T04:27:00.692Z,13.90
2023-04-13T04:29:34.346Z,13.90
2023-04-13T04:32:05.698Z,13.80
2023-04-13T04:34:33.370Z,13.80
2023-04-13T04:37:19.687Z,13.80
2023-04-13T04:39:48.622Z,13.80
2023-04-13T04:42:18.930Z,13.70
2023-04-13T04:44:50.400Z,13.70
2023-04-13T04:47:19.730Z,13.70
2023-04-13T04:49:47.286Z,13.70
2023-04-13T04:52:14.763Z,13.60
2023-04-13T04:54:42.039Z,13.60
2023-04-13T04:57:12.377Z,13.60
2023-04-13T04:59:40.934Z,13.60
2023-04-13T05:02:10.758Z,13.60
2023-04-13T05:04:43.629Z,13.60
2023-04-13T05:07:17.664Z,13.60
2023-04-13T05:09:45.594Z,13.50
2023-04-13T05:12:12.892Z,13.50
2023-04-13T05:14:42.625Z,13.50
2023-04-13T05:17:12.261Z,13.50
2023-04-13T05:19:39.569Z,13.50
2023-04-13T05:22:06.912Z,13.50
2023-04-13T05:24:36.137Z,13.50
2023-04-13T05:27:06.202Z,13.50
2023-04-13T05:29:35.443Z,13.50
2023-04-13T05:32:03.238Z,13.40
2023-04-13T05:34:33.696Z,13.40
2023-04-13T05:37:00.976Z,13.40
2023-04-13T05:39:28.344Z,13.40
2023-04-13T05:41:56.217Z,13.40
2023-04-13T05:44:26.264Z,13.40
2023-04-13T05:46:54.205Z,13.40
2023-04-13T05:49:21.577Z,13.40
2023-04-13T05:51:49.004Z,13.40
2023-04-13T05:54:17.509Z,13.30
2023-04-13T05:56:44.794Z,13.30
2023-04-13T05:59:12.466Z,13.30
2023-04-13T06:01:39.845Z,13.20
2023-04-13T06:04:09.553Z,13.20
2023-04-13T06:06:37.979Z,13.20
2023-04-13T06:09:08.835Z,13.20
2023-04-13T06:11:36.787Z,13.20
2023-04-13T06:14:06.179Z,13.10
2023-04-13T06:16:33.617Z,13.10
2023-04-13T06:19:01.359Z,13.10
2023-04-13T06:21:32.015Z,13.00
2023-04-13T06:23:59.385Z,13.00
2023-04-13T06:26:28.944Z,12.90
2023-04-13T06:28:56.809Z,12.90
2023-04-13T06:31:27.987Z,12.90
2023-04-13T06:33:55.622Z,12.80
2023-04-13T06:36:23.004Z,12.80
2023-04-13T06:38:50.661Z,12.70
2023-04-13T06:41:18.042Z,12.70
2023-04-13T06:43:45.551Z,12.70
2023-04-13T06:46:14.479Z,12.60
2023-04-13T06:48:41.977Z,12.60
2023-04-13T06:51:09.371Z,12.60
2023-04-13T06:53:36.681Z,12.50
2023-04-13T06:56:07.189Z,12.50
2023-04-13T06:58:34.655Z,12.50
2023-04-13T07:01:02.107Z,12.50
2023-04-13T07:03:32.048Z,12.50
2023-04-13T07:05:59.657Z,12.50
2023-04-13T07:08:28.249Z,12.50
2023-04-13T07:10:58.297Z,12.40
2023-04-13T07:13:28.163Z,12.40
2023-04-13T07:15:55.501Z,12.40
2023-04-13T07:18:27.271Z,12.40
2023-04-13T07:20:56.725Z,12.40
2023-04-13T07:23:26.623Z,12.40
2023-04-13T07:25:56.519Z,12.40
2023-04-13T07:28:24.207Z,12.40
2023-04-13T07:30:53.439Z,12.40
2023-04-13T07:33:20.957Z,12.40
2023-04-13T07:35:55.611Z,12.40
2023-04-13T07:38:25.331Z,12.50
2023-04-13T07:40:52.723Z,12.50
2023-04-13T07:43:25.218Z,12.60
2023-04-13T07:45:52.561Z,12.60
2023-04-13T07:48:19.865Z,12.70
2023-04-13T07:50:49.491Z,12.70
2023-04-13T07:53:16.962Z,12.70
2023-04-13T07:55:44.254Z,12.80
2023-04-13T07:58:16.038Z,12.80
2023-04-13T08:00:43.217Z,12.80
2023-04-13T08:03:13.307Z,12.90
2023-04-13T08:05:40.843Z,13.00
2023-04-13T08:08:11.175Z,13.00
2023-04-13T08:10:38.448Z,13.00
2023-04-13T08:13:05.951Z,13.00
2023-04-13T08:15:33.286Z,13.10
2023-04-13T08:18:00.998Z,13.10
2023-04-13T08:20:35.536Z,13.20
2023-04-13T08:23:03.681Z,13.20
2023-04-13T08:25:31.090Z,13.20
2023-04-13T08:28:03.077Z,13.20
2023-04-13T08:30:33.187Z,13.30
2023-04-13T08:33:01.180Z,13.30
2023-04-13T08:35:28.525Z,13.30
2023-04-13T08:38:01.889Z,13.40
2023-04-13T08:40:30.614Z,13.30
2023-04-13T08:43:00.330Z,13.40
2023-04-13T08:45:30.793Z,13.40
2023-04-13T08:48:04.358Z,13.40
2023-04-13T08:50:34.127Z,13.40
2023-04-13T08:53:01.676Z,13.40
2023-04-13T08:55:29.775Z,13.40
2023-04-13T08:58:01.221Z,13.40
2023-04-13T09:00:31.344Z,13.50
2023-04-13T09:03:05.762Z,13.50
2023-04-13T09:05:41.928Z,13.50
2023-04-13T09:08:14.168Z,13.50
2023-04-13T09:10:42.294Z,13.50
2023-04-13T09:13:09.899Z,13.50
2023-04-13T09:15:37.495Z,13.50
2023-04-13T09:18:09.628Z,13.50
2023-04-13T09:20:40.657Z,13.50
2023-04-13T09:23:16.552Z,13.50
2023-04-13T09:25:45.366Z,13.60
2023-04-13T09:28:22.378Z,13.50
2023-04-13T09:31:02.412Z,13.50
2023-04-13T09:33:34.682Z,13.50
2023-04-13T09:36:22.703Z,13.50
2023-04-13T09:38:57.484Z,13.50
2023-04-13T09:41:31.986Z,13.60
2023-04-13T09:44:17.898Z,13.50
2023-04-13T09:47:00.343Z,13.60
2023-04-13T09:49:41.108Z,13.60
2023-04-13T09:52:28.755Z,13.60
2023-04-13T09:55:00.354Z,13.60
2023-04-13T09:57:28.516Z,13.50
2023-04-13T09:59:57.817Z,13.60
2023-04-13T10:02:29.053Z,13.60
2023-04-13T10:05:03.968Z,13.60
2023-04-13T10:07:37.086Z,13.60
2023-04-13T10:10:04.935Z,13.60
2023-04-13T10:12:35.183Z,13.60
2023-04-13T10:15:31.006Z,13.60
2023-04-13T10:18:09.822Z,13.60
2023-04-13T10:20:37.563Z,13.60
2023-04-13T10:23:05.972Z,13.70
2023-04-13T10:25:35.694Z,13.70
2023-04-13T10:28:07.076Z,13.70
2023-04-13T10:30:34.384Z,13.70
2023-04-13T10:33:12.221Z,13.70
2023-04-13T10:35:43.429Z,13.80
2023-04-13T10:38:11.582Z,13.80
2023-04-13T10:40:46.253Z,13.80
2023-04-13T10:43:24.721Z,13.80
2023-04-13T10:46:05.361Z,13.90
2023-04-13T10:48:32.675Z,13.90
2023-04-13T10:51:00.704Z,13.90
2023-04-13T10:53:31.062Z,14.00
2023-04-13T10:56:01.523Z,14.00
2023-04-13T10:58:33.160Z,14.00
2023-04-13T11:01:00.943Z,14.10
2023-04-13T11:03:31.145Z,14.10
2023-04-13T11:06:00.905Z,14.10
2023-04-13T11:08:28.392Z,14.10
2023-04-13T11:10:57.079Z,14.10
2023-04-13T11:13:29.707Z,14.10
2023-04-13T11:16:06.670Z,14.10
2023-04-13T11:18:34.066Z,14.10
2023-04-13T11:21:06.831Z,14.10
2023-04-13T11:23:40.867Z,14.10
2023-04-13T11:26:08.316Z,14.10
2023-04-13T11:28:39.099Z,14.00
2023-04-13T11:31:07.593Z,14.00
2023-04-13T11:33:40.465Z,14.00
2023-04-13T11:36:09.873Z,14.00
2023-04-13T11:38:40.178Z,13.90
2023-04-13T11:41:16.539Z,13.90
2023-04-13T11:43:48.848Z,13.90
2023-04-13T11:46:25.046Z,14.00
2023-04-13T11:48:55.748Z,14.00
2023-04-13T11:51:23.872Z,14.00
2023-04-13T11:53:55.072Z,14.00
2023-04-13T11:56:25.932Z,13.90
2023-04-13T11:58:53.873Z,13.90
2023-04-13T12:01:27.144Z,13.90
2023-04-13T12:04:19.107Z,13.90
2023-04-13T12:06:50.027Z,13.90
2023-04-13T12:09:22.191Z,13.90
2023-04-13T12:12:12.081Z,13.90
2023-04-13T12:19:45.988Z,13.90
2023-04-13T12:22:14.922Z,13.90
2023-04-13T12:24:42.984Z,13.90
2023-04-13T12:27:18.263Z,13.90
2023-04-13T12:29:46.202Z,13.90
2023-04-13T12:32:16.958Z,13.90
2023-04-13T12:34:45.111Z,13.90
2023-04-13T12:37:14.963Z,13.90
2023-04-13T12:39:42.439Z,13.90
2023-04-13T12:42:12.320Z,13.90
2023-04-13T12:44:39.560Z,13.90
2023-04-13T12:47:07.081Z,13.90
2023-04-13T12:49:36.643Z,13.90
2023-04-13T12:52:04.285Z,13.90
2023-04-13T12:54:31.554Z,13.90
2023-04-13T12:57:01.629Z,13.80
2023-04-13T12:59:28.963Z,13.80
2023-04-13T13:01:58.583Z,13.90
2023-04-13T13:04:30.752Z,13.80
2023-04-13T13:06:58.421Z,13.80
2023-04-13T13:09:30.237Z,13.80
2023-04-13T13:11:58.008Z,13.80
2023-04-13T13:14:25.618Z,13.80
2023-04-13T13:16:53.185Z,13.80
2023-04-13T13:19:20.670Z,13.80
2023-04-13T13:21:52.302Z,13.80
2023-04-13T13:24:20.151Z,13.70
2023-04-13T13:27:12.146Z,13.70
2023-04-13T13:29:37.264Z,13.70
2023-04-13T13:32:04.934Z,13.70
2023-04-13T13:34:32.517Z,13.70
2023-04-13T13:36:59.794Z,13.70
2023-04-13T13:39:27.227Z,13.70
2023-04-13T13:41:54.591Z,13.60
2023-04-13T13:44:25.107Z,13.60
2023-04-13T13:46:54.930Z,13.70
2023-04-13T13:49:22.360Z,13.60
2023-04-13T13:51:51.851Z,13.60
2023-04-13T13:54:22.707Z,13.70
2023-04-13T13:56:50.109Z,13.60
2023-04-13T13:59:19.566Z,13.60
2023-04-13T14:01:49.537Z,13.70
2023-04-13T14:04:19.408Z,13.70
2023-04-13T14:06:49.483Z,13.70
2023-04-13T14:09:18.437Z,13.70
2023-04-13T14:11:48.057Z,13.80
2023-04-13T14:14:21.587Z,13.80
2023-04-13T14:16:49.436Z,13.80
2023-04-13T14:19:18.207Z,13.80
2023-04-13T14:21:49.088Z,13.80
2023-04-13T14:24:16.588Z,13.80
2023-04-13T14:26:43.829Z,13.90
2023-04-13T14:29:11.126Z,13.80
2023-04-13T14:31:40.680Z,13.80
2023-04-13T14:34:10.478Z,13.80
2023-04-13T14:36:40.215Z,13.80
2023-04-13T14:39:10.160Z,13.80
2023-04-13T14:41:37.745Z,13.80
2023-04-13T14:44:05.031Z,13.80
2023-04-13T14:46:32.368Z,13.70
2023-04-13T14:48:59.943Z,13.70
2023-04-13T14:51:29.108Z,13.70
2023-04-13T14:54:01.057Z,13.70
2023-04-13T14:56:31.056Z,13.70
2023-04-13T14:58:58.792Z,13.70
2023-04-13T15:01:28.783Z,13.70
2023-04-13T15:03:56.403Z,13.80
2023-04-13T15:06:25.430Z,13.80
2023-04-13T15:08:55.573Z,13.80
2023-04-13T15:11:25.069Z,13.80
2023-04-13T15:13:52.334Z,13.80
2023-04-13T15:16:19.660Z,13.80
2023-04-13T15:18:47.046Z,13.80
2023-04-13T15:21:16.856Z,13.80
2023-04-13T15:23:44.204Z,13.80
2023-04-13T15:26:21.697Z,13.80
2023-04-13T15:28:49.023Z,13.80
2023-04-13T15:31:16.412Z,13.70
2023-04-13T15:33:48.376Z,13.80
2023-04-13T15:36:20.403Z,13.70
2023-04-13T15:38:49.883Z,13.70
2023-04-13T15:41:25.641Z,13.70
2023-04-13T15:43:59.134Z,13.70
2023-04-13T15:46:27.580Z,13.60
2023-04-13T15:48:57.712Z,13.60
2023-04-13T15:51:25.238Z,13.60
2023-04-13T15:53:54.745Z,13.60
2023-04-13T15:56:28.576Z,13.60
2023-04-13T15:59:00.698Z,13.60
2023-04-13T16:01:28.161Z,13.60
2023-04-13T16:03:58.239Z,13.50
2023-04-13T16:06:26.034Z,13.50
2023-04-13T16:08:58.426Z,13.50
2023-04-13T16:11:28.426Z,13.40
2023-04-13T16:13:58.113Z,13.40
2023-04-13T16:16:27.744Z,13.40
2023-04-13T16:18:55.068Z,13.40
2023-04-13T16:21:26.347Z,13.30
2023-04-13T16:23:55.925Z,13.30
2023-04-13T16:26:23.916Z,13.30
2023-04-13T16:28:51.329Z,13.30
2023-04-13T16:31:18.678Z,13.20
2023-04-13T16:33:48.483Z,13.20
2023-04-13T16:36:15.854Z,13.20
2023-04-13T16:38:43.135Z,13.10
2023-04-13T16:41:10.775Z,13.10
2023-04-13T16:43:40.489Z,13.10
2023-04-13T16:46:12.183Z,13.00
2023-04-13T16:48:39.645Z,13.00
2023-04-13T16:51:09.289Z,13.10
2023-04-13T16:53:36.573Z,13.00
2023-04-13T16:56:03.987Z,13.00
2023-04-13T16:58:31.520Z,12.90
2023-04-13T17:01:01.319Z,12.90
2023-04-13T17:03:31.223Z,12.80
2023-04-13T17:05:58.577Z,12.80
2023-04-13T17:08:28.581Z,12.80
2023-04-13T17:10:55.900Z,12.80
2023-04-13T17:13:23.228Z,12.70
2023-04-13T17:15:50.799Z,12.70
2023-04-13T17:18:18.192Z,12.70
2023-04-13T17:20:57.865Z,12.70
2023-04-13T17:23:25.167Z,12.60
2023-04-13T17:25:56.518Z,12.60
2023-04-13T17:28:24.365Z,12.60
2023-04-13T17:30:51.808Z,12.50
2023-04-13T17:33:19.191Z,12.50
2023-04-13T17:35:46.578Z,12.50
2023-04-13T17:38:14.001Z,12.40
2023-04-13T17:40:41.278Z,12.40
2023-04-13T17:43:09.243Z,12.40
2023-04-13T17:45:37.940Z,12.40
2023-04-13T17:48:11.067Z,12.40
2023-04-13T17:50:43.786Z,12.40
2023-04-13T17:53:14.109Z,12.50
2023-04-13T17:55:41.393Z,12.40
2023-04-13T17:58:10.678Z,12.40
2023-04-13T18:00:41.386Z,12.40
2023-04-13T18:03:11.646Z,12.40
2023-04-13T18:05:44.469Z,12.40
2023-04-13T18:08:14.341Z,12.40
2023-04-13T18:10:44.027Z,12.50
2023-04-13T18:13:13.662Z,12.50
2023-04-13T18:15:48.627Z,12.50
2023-04-13T18:18:18.785Z,12.50
2023-04-13T18:20:46.762Z,12.50
2023-04-13T18:23:14.047Z,12.50
2023-04-13T18:25:41.279Z,12.50
2023-04-13T18:28:08.524Z,12.40
2023-04-13T18:30:37.896Z,12.40
2023-04-13T18:33:05.333Z,12.40
2023-04-13T18:35:35.339Z,12.40
2023-04-13T18:38:05.730Z,12.40
2023-04-13T18:40:35.634Z,12.40
2023-04-13T18:43:03.120Z,12.40
2023-04-13T18:45:32.761Z,12.40
2023-04-13T18:48:02.289Z,12.40
2023-04-13T18:50:29.664Z,12.40
2023-04-13T18:52:59.137Z,12.40
2023-04-13T18:55:28.462Z,12.40
2023-04-13T18:57:56.512Z,12.40
2023-04-13T19:00:26.546Z,12.40
2023-04-13T19:02:54.132Z,12.50
2023-04-13T19:05:21.687Z,12.40
2023-04-13T19:08:01.830Z,12.40
2023-04-13T19:10:29.466Z,12.40
2023-04-13T19:12:56.804Z,12.40
2023-04-13T19:15:24.919Z,12.30
2023-04-13T19:17:55.464Z,12.30
2023-04-13T19:20:25.755Z,12.20
2023-04-13T19:22:53.035Z,12.20
2023-04-13T19:25:22.674Z,12.20
2023-04-13T19:27:52.420Z,12.20
2023-04-13T19:30:19.920Z,12.20
2023-04-13T19:32:49.273Z,12.20
2023-04-13T19:35:17.409Z,12.20
2023-04-13T19:37:44.749Z,12.20
2023-04-13T19:40:14.767Z,12.20
2023-04-13T19:42:46.119Z,12.20
2023-04-13T19:45:14.742Z,12.20
2023-04-13T19:47:44.486Z,12.20
2023-04-13T19:50:15.346Z,12.20
2023-04-13T19:52:43.141Z,12.20
2023-04-13T19:55:13.390Z,12.20
2023-04-13T19:57:42.865Z,12.20
2023-04-13T20:00:22.444Z,12.20
2023-04-13T20:02:58.679Z,12.20
2023-04-13T20:05:26.084Z,12.20
2023-04-13T20:07:53.452Z,12.20
2023-04-13T20:10:20.842Z,12.20
2023-04-13T20:12:48.608Z,12.20
2023-04-13T20:15:18.417Z,12.30
2023-04-13T20:17:47.840Z,12.30
2023-04-13T20:20:18.550Z,12.30
2023-04-13T20:22:45.856Z,12.30
2023-04-13T20:25:13.206Z,12.30
2023-04-13T20:27:42.597Z,12.30
2023-04-13T20:30:11.013Z,12.30
2023-04-13T20:32:39.125Z,12.30
2023-04-13T20:35:07.019Z,12.30
2023-04-13T20:37:34.374Z,12.30
2023-04-13T20:40:02.806Z,12.30
2023-04-13T20:42:33.651Z,12.30
2023-04-13T20:45:01.760Z,12.30
2023-04-13T20:47:31.562Z,12.30
2023-04-13T20:50:01.199Z,12.30
2023-04-13T20:52:31.801Z,12.30
2023-04-13T20:55:01.375Z,12.30
2023-04-13T20:57:31.827Z,12.30
2023-04-13T20:59:59.085Z,12.30
2023-04-13T21:02:26.669Z,12.30
2023-04-13T21:04:54.150Z,12.30
2023-04-13T21:07:26.191Z,12.40
2023-04-13T21:09:53.436Z,12.30
2023-04-13T21:12:21.000Z,12.30
2023-04-13T21:14:50.790Z,12.40
2023-04-13T21:17:18.193Z,12.30
2023-04-13T21:19:45.785Z,12.30
2023-04-13T21:22:15.885Z,12.30
2023-04-13T21:24:43.140Z,12.40
2023-04-13T21:27:13.459Z,12.30
2023-04-13T21:29:40.927Z,12.30
2023-04-13T21:32:10.792Z,12.30
2023-04-13T21:34:38.167Z,12.30
2023-04-13T21:37:05.750Z,12.30
2023-04-13T21:39:36.401Z,12.30
2023-04-13T21:42:05.034Z,12.30
2023-04-13T21:44:32.336Z,12.20
2023-04-13T21:46:59.827Z,12.20
2023-04-13T21:49:29.387Z,12.20
2023-04-13T21:51:56.675Z,12.20
2023-04-13T21:54:26.252Z,12.20
2023-04-13T21:56:53.481Z,12.20
2023-04-13T21:59:21.207Z,12.20
2023-04-13T22:01:50.998Z,12.20
2023-04-13T22:04:21.048Z,12.20
2023-04-13T22:06:48.445Z,12.20
2023-04-13T22:09:16.223Z,12.20
2023-04-13T22:11:43.658Z,12.20
2023-04-13T22:14:13.177Z,12.20
2023-04-13T22:16:40.988Z,12.10
2023-04-13T22:19:08.361Z,12.10
2023-04-13T22:21:38.685Z,12.10
2023-04-13T22:24:06.251Z,12.00
2023-04-13T22:26:33.521Z,12.00
2023-04-13T22:29:01.024Z,11.90
2023-04-13T22:31:28.661Z,11.90
2023-04-13T22:33:58.220Z,11.90
2023-04-13T22:36:25.509Z,11.90
2023-04-13T22:38:55.420Z,11.80
2023-04-13T22:41:25.375Z,11.80
2023-04-13T22:43:55.459Z,11.80
2023-04-13T22:46:24.024Z,11.80
2023-04-13T22:48:53.973Z,11.70
2023-04-13T22:51:21.249Z,11.70
2023-04-13T22:53:51.769Z,11.70
2023-04-13T22:56:23.848Z,11.70
2023-04-13T22:58:53.319Z,11.70
2023-04-13T23:01:20.695Z,11.80
2023-04-13T23:03:50.703Z,11.70
2023-04-13T23:06:20.700Z,11.80
2023-04-13T23:08:47.950Z,11.70
2023-04-13T23:11:15.181Z,11.80
2023-04-13T23:13:46.772Z,11.80
2023-04-13T23:16:17.019Z,11.80
2023-04-13T23:18:44.285Z,11.80
2023-04-13T23:21:14.685Z,11.80
2023-04-13T23:23:44.441Z,11.80
2023-04-13T23:26:16.418Z,11.80
2023-04-13T23:28:43.914Z,11.80
2023-04-13T23:31:11.231Z,11.70
2023-04-13T23:33:38.562Z,11.70
2023-04-13T23:36:08.393Z,11.70
2023-04-13T23:38:35.891Z,11.70
2023-04-13T23:41:05.473Z,11.70
2023-04-13T23:43:32.795Z,11.70
2023-04-13T23:46:05.177Z,11.70
2023-04-13T23:48:34.701Z,11.70
2023-04-13T23:51:04.153Z,11.80
2023-04-13T23:53:33.660Z,11.70
2023-04-13T23:56:03.117Z,11.70
2023-04-13T23:58:32.876Z,11.80
